Time;durP1;ratioP1;P1;durP2;ratioP2;P2;SDS_P1;SDS_P2;PMS_P1;PMS_P2;Temp;Humidity;BMP_temperature;BMP_pressure;BME280_temperature;BME280_humidity;BME280_pressure;Samples;Min_cycle;Max_cycle;Signal;HPM_P1;HPM_P2
2021/11/17 02:25:56;;;;;;;8.03;4.20;;;4.50;99.90;;;;;;4966772;28;20436;-60
2021/11/17 02:28:37;;;;;;;8.40;4.90;;;4.40;99.90;;;;;;4967296;28;21043;-61
2021/11/17 02:31:17;;;;;;;6.60;4.00;;;4.40;99.90;;;;;;4968335;28;20553;-61
2021/11/17 02:34:18;;;;;;;7.10;4.50;;;4.40;99.90;;;;;;4967527;28;20854;-60
2021/11/17 02:36:50;;;;;;;7.53;4.57;;;4.40;99.90;;;;;;4969880;28;20445;-60
2021/11/17 02:39:37;;;;;;;6.80;4.43;;;4.40;99.90;;;;;;4968928;28;20444;-61
2021/11/17 02:42:15;;;;;;;10.43;4.70;;;4.50;99.90;;;;;;4966988;28;20440;-60
2021/11/17 02:44:53;;;;;;;9.67;4.70;;;4.50;99.90;;;;;;4969218;28;20995;-60
2021/11/17 02:47:31;;;;;;;9.50;5.50;;;4.50;99.90;;;;;;4965435;28;20853;-61
2021/11/17 02:50:05;;;;;;;13.27;6.33;;;4.50;99.90;;;;;;4963748;28;22084;-61
2021/11/17 02:52:30;;;;;;;8.40;5.00;;;4.50;99.90;;;;;;4969606;28;20487;-61
2021/11/17 02:55:05;;;;;;;8.03;4.77;;;4.50;99.90;;;;;;4969592;28;20436;-61
2021/11/17 02:58:17;;;;;;;7.73;5.03;;;4.50;99.90;;;;;;4968258;28;20256;-61
2021/11/17 03:00:52;;;;;;;6.83;4.43;;;4.40;99.90;;;;;;4965574;28;21026;-61
2021/11/17 03:03:39;;;;;;;9.10;5.67;;;4.40;99.90;;;;;;4968323;28;20419;-61
2021/11/17 03:06:11;;;;;;;6.97;4.83;;;4.30;99.90;;;;;;4970088;28;20440;-58
2021/11/17 03:09:03;;;;;;;6.77;4.80;;;4.30;99.90;;;;;;4961463;28;20943;-62
2021/11/17 03:11:41;;;;;;;9.33;5.80;;;4.20;99.90;;;;;;4961689;28;21042;-61
2021/11/17 03:14:19;;;;;;;6.70;4.10;;;4.20;99.90;;;;;;4966807;28;20435;-60
2021/11/17 03:17:24;;;;;;;7.87;4.77;;;4.20;99.90;;;;;;4962893;28;20441;-61
2021/11/17 03:19:59;;;;;;;6.63;4.07;;;4.20;99.90;;;;;;4961201;28;20492;-60
2021/11/17 03:22:46;;;;;;;6.80;4.00;;;4.20;99.90;;;;;;4963150;28;20971;-60
2021/11/17 03:25:15;;;;;;;7.80;4.40;;;4.20;99.90;;;;;;4963764;28;20499;-61
2021/11/17 03:27:40;;;;;;;5.80;3.70;;;4.20;99.90;;;;;;4963126;28;20437;-61
2021/11/17 03:30:28;;;;;;;5.57;3.80;;;4.20;99.90;;;;;;4963346;28;20471;-61
2021/11/17 03:33:24;;;;;;;6.47;4.40;;;4.20;99.90;;;;;;4963297;28;20178;-60
2021/11/17 03:35:59;;;;;;;6.30;4.17;;;4.20;99.90;;;;;;4962964;28;20429;-59
2021/11/17 03:38:33;;;;;;;3.97;3.47;;;4.30;99.90;;;;;;4961354;28;20447;-61
2021/11/17 03:41:31;;;;;;;10.33;4.40;;;4.30;99.90;;;;;;4962050;28;20448;-59
2021/11/17 03:44:13;;;;;;;6.60;4.17;;;4.20;99.90;;;;;;4928564;28;20553;-60
2021/11/17 03:46:50;;;;;;;7.20;4.03;;;4.30;99.90;;;;;;4964494;28;20437;-61
2021/11/17 03:49:40;;;;;;;4.20;3.20;;;4.20;99.90;;;;;;4958709;28;20448;-60
2021/11/17 03:52:36;;;;;;;5.10;4.17;;;4.20;99.90;;;;;;4961433;28;20447;-61
2021/11/17 03:55:39;;;;;;;5.57;3.63;;;4.20;99.90;;;;;;4963272;28;20803;-62
2021/11/17 03:58:35;;;;;;;5.53;3.90;;;4.20;99.90;;;;;;4963740;28;20412;-62
2021/11/17 04:01:27;;;;;;;9.40;3.80;;;4.30;99.90;;;;;;4963725;28;20536;-61
2021/11/17 04:04:08;;;;;;;6.70;3.50;;;4.30;99.90;;;;;;4965884;28;20426;-61
2021/11/17 04:06:37;;;;;;;4.90;3.80;;;4.30;99.90;;;;;;4964555;28;20429;-60
2021/11/17 04:09:29;;;;;;;5.43;3.43;;;4.30;99.90;;;;;;4981988;23;20505;-58
2021/11/17 04:11:54;;;;;;;3.53;2.90;;;4.30;99.90;;;;;;4994795;28;20483;-59
2021/11/17 04:14:42;;;;;;;4.27;3.20;;;4.30;99.90;;;;;;5001170;28;20427;-59
2021/11/17 04:17:48;;;;;;;3.70;3.00;;;4.30;99.90;;;;;;5002455;28;20522;-57
2021/11/17 04:20:38;;;;;;;4.47;3.37;;;4.30;99.90;;;;;;4994203;28;20939;-59
2021/11/17 04:23:22;;;;;;;5.13;3.93;;;4.30;99.90;;;;;;4982993;28;20508;-59
2021/11/17 04:26:23;;;;;;;6.30;4.00;;;4.30;99.90;;;;;;4987962;28;20439;-56
2021/11/17 04:29:09;;;;;;;6.10;4.07;;;4.30;99.90;;;;;;4967486;28;20912;-57
2021/11/17 04:31:53;;;;;;;7.57;4.40;;;4.30;99.90;;;;;;4987730;28;20460;-58
2021/11/17 04:34:34;;;;;;;4.90;3.90;;;4.30;99.90;;;;;;4987775;28;20527;-54
2021/11/17 04:37:25;;;;;;;5.00;3.80;;;4.30;99.90;;;;;;4984301;28;20448;-55
2021/11/17 04:40:18;;;;;;;8.67;4.53;;;4.30;99.90;;;;;;4985096;28;20471;-56
2021/11/17 04:43:09;;;;;;;6.13;3.93;;;4.30;99.90;;;;;;4987825;28;20651;-57
2021/11/17 04:45:49;;;;;;;8.40;4.70;;;4.30;99.90;;;;;;4976955;28;20544;-57
2021/11/17 04:48:21;;;;;;;7.37;4.90;;;4.30;99.90;;;;;;4981021;28;20440;-56
2021/11/17 04:51:21;;;;;;;6.77;4.47;;;4.30;99.90;;;;;;4988897;28;20463;-58
2021/11/17 04:54:26;;;;;;;5.37;3.60;;;4.30;99.90;;;;;;4981090;28;21210;-56
2021/11/17 04:57:10;;;;;;;6.17;3.83;;;4.30;99.90;;;;;;4979436;28;20450;-54
2021/11/17 04:59:38;;;;;;;7.20;4.10;;;4.30;99.90;;;;;;4984969;28;20567;-57
2021/11/17 05:02:19;;;;;;;5.63;4.00;;;4.30;99.90;;;;;;4983988;28;20475;-54
2021/11/17 05:05:06;;;;;;;5.27;3.50;;;4.40;99.90;;;;;;4991620;28;20725;-55
2021/11/17 05:07:37;;;;;;;5.73;3.90;;;4.40;99.90;;;;;;4981115;28;20439;-55
2021/11/17 05:10:25;;;;;;;6.50;3.90;;;4.40;99.90;;;;;;4989940;28;21155;-58
2021/11/17 05:13:15;;;;;;;6.10;3.80;;;4.40;99.90;;;;;;4980916;28;20436;-56
2021/11/17 05:15:59;;;;;;;5.03;3.60;;;4.40;99.90;;;;;;4982985;28;20436;-57
2021/11/17 05:18:43;;;;;;;6.80;4.17;;;4.40;99.90;;;;;;4987268;28;20444;-58
2021/11/17 05:21:31;;;;;;;5.93;3.90;;;4.40;99.90;;;;;;4982854;28;20465;-59
2021/11/17 05:24:22;;;;;;;6.30;4.00;;;4.40;99.90;;;;;;4997358;28;20423;-57
2021/11/17 05:27:02;;;;;;;6.20;4.30;;;4.40;99.90;;;;;;4988213;28;20511;-62
2021/11/17 05:29:49;;;;;;;5.07;3.40;;;4.40;99.90;;;;;;4984977;28;20448;-64
2021/11/17 05:32:37;;;;;;;5.80;3.60;;;4.40;99.90;;;;;;4984974;28;21155;-64
2021/11/17 05:35:24;;;;;;;5.67;4.13;;;4.40;99.90;;;;;;4987360;28;20799;-62
2021/11/17 05:38:08;;;;;;;19.53;9.77;;;4.40;99.90;;;;;;4983410;28;20466;-59
2021/11/17 05:41:12;;;;;;;8.93;4.43;;;4.40;99.90;;;;;;4983660;28;21008;-58
2021/11/17 05:43:50;;;;;;;7.50;4.20;;;4.30;99.90;;;;;;4957157;28;20541;-56
2021/11/17 05:46:37;;;;;;;5.83;4.40;;;4.30;99.90;;;;;;4987677;28;20816;-58
2021/11/17 05:49:14;;;;;;;5.20;3.90;;;4.40;99.90;;;;;;4990371;28;20986;-59
2021/11/17 05:52:09;;;;;;;8.90;4.00;;;4.30;99.90;;;;;;4977019;28;20470;-59
2021/11/17 05:54:41;;;;;;;6.97;4.17;;;4.30;99.90;;;;;;4980324;28;20573;-59
2021/11/17 05:57:31;;;;;;;4.90;3.67;;;4.30;99.90;;;;;;4989652;28;20436;-61
2021/11/17 06:00:14;;;;;;;4.70;3.60;;;4.30;99.90;;;;;;4969084;28;20464;-61
2021/11/17 06:02:41;;;;;;;5.13;3.53;;;4.30;99.90;;;;;;4990658;28;20440;-58
2021/11/17 06:05:07;;;;;;;8.00;3.90;;;4.30;99.90;;;;;;4974012;28;21121;-59
2021/11/17 06:07:32;;;;;;;8.20;4.10;;;4.30;99.90;;;;;;4986762;28;20424;-56
2021/11/17 06:10:32;;;;;;;6.17;4.40;;;4.30;99.90;;;;;;4978992;28;20216;-63
2021/11/17 06:12:59;;;;;;;5.73;4.00;;;4.30;99.90;;;;;;4986852;28;20182;-60
2021/11/17 06:15:25;;;;;;;6.23;3.57;;;4.30;99.90;;;;;;4973179;28;20459;-59
2021/11/17 06:17:53;;;;;;;5.10;3.50;;;4.30;99.90;;;;;;4975360;28;20530;-54
2021/11/17 06:20:21;;;;;;;6.10;3.90;;;4.30;99.90;;;;;;4979406;28;20495;-60
2021/11/17 06:22:53;;;;;;;6.00;4.43;;;4.30;99.90;;;;;;4984140;28;20439;-60
2021/11/17 06:25:20;;;;;;;5.70;3.97;;;4.30;99.90;;;;;;4976409;28;20444;-59
2021/11/17 06:27:49;;;;;;;6.70;4.80;;;4.30;99.90;;;;;;4999606;28;20914;-56
2021/11/17 06:30:18;;;;;;;6.43;3.80;;;4.30;99.90;;;;;;4988985;28;20436;-59
2021/11/17 06:32:45;;;;;;;7.53;3.90;;;4.30;99.90;;;;;;4981014;28;20494;-58
2021/11/17 06:35:10;;;;;;;5.40;3.77;;;4.30;99.90;;;;;;4980423;28;20757;-59
2021/11/17 06:37:37;;;;;;;12.13;5.00;;;4.30;99.90;;;;;;4977533;28;20432;-57
2021/11/17 06:40:05;;;;;;;9.50;4.47;;;4.30;99.90;;;;;;4982354;28;20314;-58
2021/11/17 06:42:40;;;;;;;9.30;5.13;;;4.30;99.90;;;;;;4979075;28;20506;-60
2021/11/17 06:45:09;;;;;;;7.20;4.73;;;4.30;99.90;;;;;;4988511;28;20469;-57
2021/11/17 06:47:35;;;;;;;7.60;5.20;;;4.30;99.90;;;;;;4987643;28;20424;-59
2021/11/17 06:50:01;;;;;;;9.17;4.90;;;4.30;99.90;;;;;;4990098;28;20558;-62
2021/11/17 06:52:26;;;;;;;9.47;5.37;;;4.30;99.90;;;;;;4983549;28;20174;-59
2021/11/17 06:54:52;;;;;;;8.13;5.57;;;4.30;99.90;;;;;;4978412;28;20198;-58
2021/11/17 06:57:18;;;;;;;6.97;4.27;;;4.30;99.90;;;;;;4984896;28;20176;-56
2021/11/17 06:59:45;;;;;;;6.87;4.40;;;4.30;99.90;;;;;;4982504;28;20539;-59
2021/11/17 07:02:11;;;;;;;11.03;3.70;;;4.30;99.90;;;;;;4986730;28;20456;-59
2021/11/17 07:04:37;;;;;;;7.57;5.20;;;4.30;99.90;;;;;;4974520;28;20408;-58
2021/11/17 07:07:05;;;;;;;12.23;5.93;;;4.30;99.90;;;;;;4985135;28;20254;-60
2021/11/17 07:09:31;;;;;;;20.43;6.80;;;4.30;99.90;;;;;;4974086;28;20866;-58
2021/11/17 07:11:57;;;;;;;8.43;5.40;;;4.30;99.90;;;;;;4972534;28;20414;-57
2021/11/17 07:14:23;;;;;;;10.40;5.20;;;4.30;99.90;;;;;;4975296;28;20174;-61
2021/11/17 07:16:50;;;;;;;8.97;4.87;;;4.30;99.90;;;;;;4982641;28;20178;-61
2021/11/17 07:19:23;;;;;;;8.87;5.10;;;4.30;99.90;;;;;;4985787;28;20919;-61
2021/11/17 07:21:49;;;;;;;8.20;5.00;;;4.30;99.90;;;;;;4978707;28;20453;-58
2021/11/17 07:24:15;;;;;;;11.30;4.90;;;4.30;99.90;;;;;;4975863;28;20477;-60
2021/11/17 07:26:41;;;;;;;10.47;5.90;;;4.40;99.90;;;;;;4977355;28;20900;-59
2021/11/17 07:29:06;;;;;;;7.17;4.40;;;4.40;99.90;;;;;;4969186;28;20193;-56
2021/11/17 07:31:32;;;;;;;9.80;4.37;;;4.30;99.90;;;;;;4975265;28;20177;-57
2021/11/17 07:33:57;;;;;;;9.17;5.10;;;4.40;99.90;;;;;;4976827;28;20272;-56
2021/11/17 07:36:23;;;;;;;9.13;4.43;;;4.40;99.90;;;;;;4983193;28;20212;-59
2021/11/17 07:38:49;;;;;;;5.70;4.00;;;4.40;99.90;;;;;;4981189;28;20257;-54
2021/11/17 07:41:15;;;;;;;8.63;5.33;;;4.40;99.90;;;;;;4978523;28;20194;-56
2021/11/17 07:43:40;;;;;;;8.70;4.73;;;4.40;99.90;;;;;;4989489;28;20176;-56
2021/11/17 07:46:06;;;;;;;9.00;4.43;;;4.50;99.90;;;;;;4991437;28;20432;-59
2021/11/17 07:48:32;;;;;;;10.47;5.77;;;4.50;99.90;;;;;;4976157;28;20166;-59
2021/11/17 07:51:00;;;;;;;9.70;5.83;;;4.50;99.90;;;;;;4983871;28;20571;-57
2021/11/17 07:53:27;;;;;;;7.63;4.60;;;4.50;99.90;;;;;;5000475;28;20648;-57
2021/11/17 07:55:54;;;;;;;7.97;5.00;;;4.50;99.90;;;;;;4986498;28;20975;-57
2021/11/17 07:58:22;;;;;;;7.30;4.97;;;4.50;99.90;;;;;;4985595;28;20422;-59
2021/11/17 08:00:51;;;;;;;8.33;4.27;;;4.60;99.90;;;;;;4986033;28;20469;-59
2021/11/17 08:03:19;;;;;;;5.63;3.93;;;4.50;99.90;;;;;;4986283;28;20482;-56
2021/11/17 08:05:48;;;;;;;4.70;3.30;;;4.50;99.90;;;;;;4986232;28;20503;-58
2021/11/17 08:08:15;;;;;;;7.97;4.87;;;4.50;99.90;;;;;;4990217;28;20438;-57
2021/11/17 08:10:42;;;;;;;6.73;4.20;;;4.50;99.90;;;;;;4972459;28;20501;-60
2021/11/17 08:13:08;;;;;;;5.93;4.47;;;4.50;99.90;;;;;;4978196;28;20423;-59
2021/11/17 08:15:34;;;;;;;6.73;4.57;;;4.50;99.90;;;;;;4988976;28;20412;-56
2021/11/17 08:18:00;;;;;;;8.23;4.57;;;4.50;99.90;;;;;;4981588;28;20436;-57
2021/11/17 08:20:27;;;;;;;7.10;4.50;;;4.50;99.90;;;;;;4986382;28;20544;-59
2021/11/17 08:22:54;;;;;;;6.70;4.37;;;4.50;99.90;;;;;;4974599;28;20962;-57
2021/11/17 08:25:23;;;;;;;9.47;4.93;;;4.50;99.90;;;;;;4987860;28;20482;-61
2021/11/17 08:27:50;;;;;;;6.43;4.50;;;4.50;99.90;;;;;;4993428;28;20475;-57
2021/11/17 08:30:18;;;;;;;7.33;4.70;;;4.50;99.90;;;;;;4988048;28;20441;-59
2021/11/17 08:32:45;;;;;;;6.67;4.50;;;4.50;99.90;;;;;;4979787;28;20705;-58
2021/11/17 08:35:14;;;;;;;8.80;5.30;;;4.50;99.90;;;;;;4984404;28;20991;-56
2021/11/17 08:37:40;;;;;;;8.33;5.40;;;4.50;99.90;;;;;;4988463;28;20660;-57
2021/11/17 08:40:16;;;;;;;7.47;4.80;;;4.50;99.90;;;;;;4981248;28;20452;-59
2021/11/17 08:42:42;;;;;;;9.50;5.20;;;4.50;99.90;;;;;;4991128;28;20444;-57
2021/11/17 08:45:09;;;;;;;11.57;6.30;;;4.50;99.90;;;;;;4991297;28;20563;-57
2021/11/17 08:47:35;;;;;;;9.97;5.57;;;4.50;99.90;;;;;;4986284;28;20885;-59
2021/11/17 08:50:01;;;;;;;9.20;4.87;;;4.50;99.90;;;;;;4989341;28;20515;-59
2021/11/17 08:52:26;;;;;;;15.50;5.17;;;4.50;99.90;;;;;;4983718;28;20452;-60
2021/11/17 08:54:53;;;;;;;5.03;4.10;;;4.50;99.90;;;;;;4986812;28;20509;-60
2021/11/17 08:57:20;;;;;;;5.03;3.80;;;4.50;99.90;;;;;;4976083;28;20178;-58
2021/11/17 08:59:52;;;;;;;10.10;5.03;;;4.40;99.90;;;;;;4971532;28;20528;-60
2021/11/17 09:02:18;;;;;;;4.67;3.50;;;4.40;99.90;;;;;;4980257;28;20426;-59
2021/11/17 09:04:44;;;;;;;4.80;3.10;;;4.40;99.90;;;;;;4984730;28;20508;-60
2021/11/17 09:07:12;;;;;;;4.30;3.60;;;4.40;99.90;;;;;;4979774;28;20515;-58
2021/11/17 09:09:38;;;;;;;4.37;3.33;;;4.40;99.90;;;;;;5006257;28;20451;-66
2021/11/17 09:12:04;;;;;;;6.07;3.20;;;4.40;99.90;;;;;;5006271;28;20506;-62
2021/11/17 09:14:30;;;;;;;3.97;3.50;;;4.40;99.90;;;;;;4992663;28;20519;-59
2021/11/17 09:16:55;;;;;;;5.40;2.73;;;4.40;99.90;;;;;;4996450;28;20438;-58
2021/11/17 09:19:22;;;;;;;2.90;2.67;;;4.40;99.90;;;;;;4990849;28;20199;-61
2021/11/17 09:21:49;;;;;;;4.20;2.90;;;4.40;99.90;;;;;;4997012;28;20233;-61
2021/11/17 09:24:18;;;;;;;3.90;2.90;;;4.40;99.90;;;;;;5002967;28;20908;-59
2021/11/17 09:26:46;;;;;;;4.37;2.83;;;4.40;99.90;;;;;;5012038;28;20966;-63
2021/11/17 09:29:12;;;;;;;4.53;3.23;;;4.50;99.90;;;;;;4998871;28;20459;-61
2021/11/17 09:31:40;;;;;;;5.40;2.83;;;4.50;99.90;;;;;;4997208;28;20437;-60
2021/11/17 09:34:06;;;;;;;3.37;3.00;;;4.50;99.90;;;;;;4982195;28;20433;-59
2021/11/17 09:36:32;;;;;;;3.90;2.40;;;4.50;99.90;;;;;;4983436;28;20926;-57
2021/11/17 09:38:58;;;;;;;3.07;2.77;;;4.50;99.90;;;;;;4981143;28;20439;-59
2021/11/17 09:41:31;;;;;;;3.00;2.47;;;4.50;99.90;;;;;;4974995;28;20468;-58
2021/11/17 09:44:00;;;;;;;2.60;2.40;;;4.50;99.90;;;;;;4984458;28;20180;-55
2021/11/17 09:46:28;;;;;;;2.67;2.20;;;4.50;99.90;;;;;;4974856;28;20726;-60
2021/11/17 09:48:59;;;;;;;2.77;2.50;;;4.50;99.90;;;;;;4980876;28;20495;-56
2021/11/17 09:51:36;;;;;;;3.00;2.57;;;4.50;99.90;;;;;;4985755;28;20436;-60
2021/11/17 09:54:36;;;;;;;2.60;2.40;;;4.50;99.90;;;;;;4983239;28;20792;-57
2021/11/17 09:57:09;;;;;;;3.50;2.70;;;4.50;99.90;;;;;;4983783;28;20851;-57
2021/11/17 09:59:56;;;;;;;3.50;2.70;;;4.50;99.90;;;;;;4978945;28;20456;-57
2021/11/17 10:02:48;;;;;;;6.17;3.43;;;4.50;99.90;;;;;;4986921;28;20487;-62
2021/11/17 10:05:23;;;;;;;4.17;3.03;;;4.40;99.90;;;;;;5002545;28;20504;-57
2021/11/17 10:13:51;;;;;;;2.90;2.30;;;4.50;99.90;;;;;;5010779;28;20427;-61
2021/11/17 10:16:17;;;;;;;5.27;3.00;;;4.40;99.90;;;;;;5021477;28;20425;-60
2021/11/17 10:18:50;;;;;;;3.10;2.33;;;4.40;99.90;;;;;;5026966;28;20418;-60
2021/11/17 10:21:30;;;;;;;3.30;2.47;;;4.40;99.90;;;;;;5020890;28;20451;-59
2021/11/17 10:24:06;;;;;;;2.47;2.13;;;4.40;99.90;;;;;;5018031;28;20982;-60
2021/11/17 10:26:49;;;;;;;2.57;2.37;;;4.50;99.90;;;;;;5018966;28;20506;-59
2021/11/17 10:29:52;;;;;;;3.93;1.90;;;4.50;99.90;;;;;;5024628;28;20422;-60
2021/11/17 10:32:26;;;;;;;2.60;2.20;;;4.50;99.90;;;;;;5019764;28;20406;-63
2021/11/17 10:35:17;;;;;;;3.90;2.30;;;4.60;99.90;;;;;;5028390;28;20418;-61
2021/11/17 10:38:05;;;;;;;4.47;2.20;;;4.60;99.90;;;;;;5024971;28;20470;-63
2021/11/17 10:40:41;;;;;;;2.20;2.00;;;4.70;99.90;;;;;;5014267;28;20455;-61
2021/11/17 10:43:16;;;;;;;3.97;1.83;;;4.70;99.90;;;;;;5023255;28;20419;-61
2021/11/17 10:45:46;;;;;;;3.30;2.00;;;4.70;99.90;;;;;;5015187;28;20426;-61
2021/11/17 10:48:35;;;;;;;2.37;2.17;;;4.70;99.90;;;;;;5028667;28;20425;-61
2021/11/17 10:51:16;;;;;;;2.27;2.07;;;4.80;99.90;;;;;;5017150;28;20443;-60
2021/11/17 10:53:47;;;;;;;4.27;2.50;;;4.80;99.90;;;;;;5016290;28;20979;-62
2021/11/17 10:56:16;;;;;;;4.80;2.70;;;4.80;99.90;;;;;;5018614;28;20402;-61
2021/11/17 10:58:44;;;;;;;4.17;2.43;;;4.70;99.90;;;;;;5016746;28;20426;-60
2021/11/17 11:01:26;;;;;;;3.13;2.03;;;4.80;99.90;;;;;;5022124;28;20454;-61
2021/11/17 11:04:07;;;;;;;6.77;3.97;;;4.80;99.90;;;;;;5022027;28;20515;-61
2021/11/17 11:06:47;;;;;;;5.77;3.77;;;4.80;99.90;;;;;;5011727;28;20419;-62
2021/11/17 11:09:26;;;;;;;3.20;2.40;;;4.80;99.90;;;;;;5020527;28;20418;-59
2021/11/17 11:11:54;;;;;;;2.60;2.40;;;4.80;99.90;;;;;;5020723;28;20423;-61
2021/11/17 11:14:27;;;;;;;3.20;2.13;;;4.90;99.90;;;;;;5013086;28;20466;-61
2021/11/17 11:17:02;;;;;;;2.43;2.23;;;4.90;99.90;;;;;;5026773;28;20977;-61
2021/11/17 11:19:30;;;;;;;4.07;2.80;;;4.90;99.90;;;;;;5027907;28;20457;-62
2021/11/17 11:22:03;;;;;;;2.43;2.10;;;4.90;99.90;;;;;;5016891;28;20463;-63
2021/11/17 11:24:29;;;;;;;3.40;1.90;;;4.80;99.90;;;;;;5011404;28;20485;-61
2021/11/17 11:26:58;;;;;;;2.63;2.23;;;4.80;99.90;;;;;;5030660;28;20417;-61
2021/11/17 11:29:41;;;;;;;2.60;2.03;;;4.80;99.90;;;;;;5023589;28;20419;-59
2021/11/17 11:32:29;;;;;;;2.90;2.40;;;4.80;99.90;;;;;;5016005;28;20473;-62
2021/11/17 11:34:58;;;;;;;2.43;2.10;;;4.90;99.90;;;;;;5011710;28;21077;-60
2021/11/17 11:37:23;;;;;;;4.20;3.00;;;4.90;99.90;;;;;;5013353;28;20477;-61
2021/11/17 11:39:54;;;;;;;3.20;2.53;;;4.90;99.90;;;;;;5017628;28;20438;-62
2021/11/17 11:42:20;;;;;;;3.43;2.90;;;4.90;99.90;;;;;;5024286;28;20585;-61
2021/11/17 11:44:53;;;;;;;4.90;3.57;;;4.90;99.90;;;;;;5021475;28;20959;-60
2021/11/17 11:47:21;;;;;;;4.17;2.23;;;5.00;99.90;;;;;;5020992;28;20164;-60
2021/11/17 11:49:49;;;;;;;2.70;2.23;;;5.00;99.90;;;;;;5016119;28;20435;-64
2021/11/17 11:52:23;;;;;;;2.53;1.63;;;5.10;99.90;;;;;;5022886;28;20501;-62
2021/11/17 11:54:55;;;;;;;2.07;1.87;;;5.10;99.90;;;;;;5025857;28;20428;-62
2021/11/17 11:57:21;;;;;;;2.10;1.90;;;5.00;99.90;;;;;;5014775;28;20859;-60
2021/11/17 11:59:46;;;;;;;1.60;1.50;;;5.00;99.90;;;;;;5011927;28;20530;-61
2021/11/17 12:02:19;;;;;;;2.03;1.60;;;5.00;99.90;;;;;;5026846;28;20219;-61
2021/11/17 12:04:47;;;;;;;1.80;1.70;;;5.00;99.90;;;;;;5028917;28;20169;-61
2021/11/17 12:07:24;;;;;;;2.30;1.90;;;5.10;99.90;;;;;;5032260;28;20494;-62
2021/11/17 12:10:25;;;;;;;3.30;2.47;;;5.10;99.90;;;;;;5021156;28;21185;-60
2021/11/17 12:12:51;;;;;;;3.63;2.03;;;5.10;99.90;;;;;;5023826;28;20788;-61
2021/11/17 12:15:31;;;;;;;2.07;1.87;;;5.00;99.90;;;;;;5032445;28;20472;-61
2021/11/17 12:18:08;;;;;;;2.60;2.10;;;5.00;99.90;;;;;;5024388;28;20183;-60
2021/11/17 12:20:40;;;;;;;2.70;2.23;;;5.00;99.90;;;;;;5020223;28;20542;-57
2021/11/17 12:23:35;;;;;;;2.77;2.27;;;5.00;99.90;;;;;;5024900;28;20407;-60
2021/11/17 12:26:24;;;;;;;2.67;2.43;;;5.00;99.90;;;;;;5017434;28;20465;-60
2021/11/17 12:29:01;;;;;;;2.87;2.57;;;5.10;99.90;;;;;;5010372;28;20438;-60
2021/11/17 12:31:31;;;;;;;2.40;2.20;;;5.10;99.90;;;;;;5015289;28;20435;-60
2021/11/17 12:34:20;;;;;;;2.63;2.40;;;5.10;99.90;;;;;;5026886;28;20482;-61
2021/11/17 12:36:57;;;;;;;2.10;1.90;;;5.10;99.90;;;;;;5012894;28;20511;-60
2021/11/17 12:39:28;;;;;;;3.63;2.67;;;5.00;99.90;;;;;;5011971;28;20414;-60
2021/11/17 12:41:57;;;;;;;3.27;2.97;;;5.00;99.90;;;;;;5025311;28;20442;-60
2021/11/17 12:44:26;;;;;;;4.30;2.83;;;5.00;99.90;;;;;;5020982;28;20960;-60
2021/11/17 12:47:09;;;;;;;2.53;2.30;;;5.00;99.90;;;;;;5018239;28;20510;-61
2021/11/17 12:49:48;;;;;;;3.60;2.73;;;5.10;99.90;;;;;;5020940;28;20984;-61
2021/11/17 12:52:23;;;;;;;2.23;2.00;;;5.10;99.90;;;;;;5011676;28;20990;-60
2021/11/17 12:54:54;;;;;;;3.53;2.43;;;5.10;99.90;;;;;;5015892;28;20416;-60
2021/11/17 12:57:31;;;;;;;3.17;2.43;;;5.10;99.90;;;;;;5018203;28;20960;-62
2021/11/17 13:00:20;;;;;;;2.40;2.20;;;5.10;99.90;;;;;;5011698;28;21050;-60
2021/11/17 13:02:58;;;;;;;3.30;2.20;;;5.00;99.90;;;;;;5016660;28;20493;-60
2021/11/17 13:05:24;;;;;;;2.70;2.47;;;5.00;99.90;;;;;;5019601;28;20952;-60
2021/11/17 13:08:05;;;;;;;2.93;2.37;;;5.10;99.90;;;;;;5020060;28;20502;-58
2021/11/17 13:10:41;;;;;;;3.97;2.37;;;5.10;99.90;;;;;;5027182;28;20213;-62
2021/11/17 13:13:23;;;;;;;2.90;2.60;;;5.00;99.90;;;;;;5015816;28;20415;-59
2021/11/17 13:15:48;;;;;;;3.60;2.47;;;5.00;99.90;;;;;;5012979;28;20427;-61
2021/11/17 13:18:37;;;;;;;2.23;2.10;;;5.00;99.90;;;;;;5021262;28;20433;-62
2021/11/17 13:21:28;;;;;;;2.33;2.13;;;5.00;99.90;;;;;;5023430;28;20377;-61
2021/11/17 13:23:56;;;;;;;2.70;2.50;;;5.00;99.90;;;;;;5019978;28;20426;-64
2021/11/17 13:26:42;;;;;;;2.20;2.00;;;5.00;99.90;;;;;;5015683;28;21000;-60
2021/11/17 13:29:28;;;;;;;3.80;2.73;;;5.00;99.90;;;;;;5015322;28;20418;-59
2021/11/17 13:31:55;;;;;;;2.93;2.63;;;5.00;99.90;;;;;;5020950;28;20416;-60
2021/11/17 13:34:35;;;;;;;8.00;4.80;;;5.00;99.90;;;;;;5010767;28;20753;-61
2021/11/17 13:37:32;;;;;;;4.83;3.30;;;4.90;99.90;;;;;;5014126;28;20449;-59
2021/11/17 13:40:02;;;;;;;3.57;3.10;;;4.90;99.90;;;;;;5010659;28;20957;-61
2021/11/17 13:42:29;;;;;;;3.97;2.40;;;4.90;99.90;;;;;;5019839;28;20434;-61
2021/11/17 13:44:56;;;;;;;2.60;2.20;;;4.80;99.90;;;;;;5010313;28;20415;-60
2021/11/17 13:47:24;;;;;;;4.77;2.63;;;4.80;99.90;;;;;;5013115;28;20420;-60
2021/11/17 13:49:52;;;;;;;4.23;2.83;;;4.80;99.90;;;;;;5014845;28;20454;-60
2021/11/17 13:52:23;;;;;;;2.47;2.27;;;4.80;99.90;;;;;;5015931;28;20569;-61
2021/11/17 13:54:49;;;;;;;3.20;1.87;;;4.80;99.90;;;;;;5016992;28;20937;-60
2021/11/17 13:57:16;;;;;;;3.57;2.40;;;4.80;99.90;;;;;;5017297;28;20521;-60
2021/11/17 13:59:42;;;;;;;2.80;2.60;;;4.80;99.90;;;;;;5015463;28;20428;-60
2021/11/17 14:02:10;;;;;;;2.80;2.50;;;4.80;99.90;;;;;;5020691;28;20457;-59
2021/11/17 14:04:35;;;;;;;3.90;2.50;;;4.80;99.90;;;;;;5027848;28;20418;-57
2021/11/17 14:07:01;;;;;;;4.23;2.17;;;4.80;99.90;;;;;;5021108;28;20418;-56
2021/11/17 14:09:28;;;;;;;3.30;2.47;;;4.80;99.90;;;;;;5025148;28;20273;-60
2021/11/17 14:11:56;;;;;;;4.70;2.60;;;4.80;99.90;;;;;;5028404;28;20952;-60
2021/11/17 14:14:21;;;;;;;2.90;2.50;;;4.80;99.90;;;;;;5024157;28;20418;-60
2021/11/17 14:16:48;;;;;;;3.13;2.53;;;4.70;99.90;;;;;;5021286;28;20435;-58
2021/11/17 14:19:14;;;;;;;2.20;2.00;;;4.70;99.90;;;;;;5023091;28;20557;-58
2021/11/17 14:21:42;;;;;;;4.63;2.90;;;4.70;99.90;;;;;;5020595;28;20535;-58
2021/11/17 14:24:09;;;;;;;2.60;2.40;;;4.70;99.90;;;;;;5022071;28;20930;-60
2021/11/17 14:26:35;;;;;;;3.50;2.90;;;4.60;99.90;;;;;;5021761;28;20467;-59
2021/11/17 14:29:05;;;;;;;3.23;2.20;;;4.70;99.90;;;;;;5027397;28;20477;-59
2021/11/17 14:31:38;;;;;;;3.23;2.00;;;4.70;99.90;;;;;;5013757;28;20442;-58
2021/11/17 14:34:04;;;;;;;4.23;2.63;;;4.70;99.90;;;;;;5026441;28;20419;-59
2021/11/17 14:36:43;;;;;;;3.53;1.90;;;4.80;99.90;;;;;;5014796;28;20442;-58
2021/11/17 14:39:09;;;;;;;4.30;2.23;;;4.70;99.90;;;;;;5011652;28;20425;-61
2021/11/17 14:41:35;;;;;;;4.47;2.30;;;4.80;99.90;;;;;;5015631;28;20462;-59
2021/11/17 14:44:03;;;;;;;2.20;2.00;;;4.80;99.90;;;;;;5018509;28;20206;-59
2021/11/17 14:46:29;;;;;;;1.70;1.60;;;4.80;99.90;;;;;;5011774;28;20454;-60
2021/11/17 14:48:54;;;;;;;2.30;2.10;;;4.80;99.90;;;;;;5020714;28;20779;-60
2021/11/17 14:51:20;;;;;;;2.00;1.90;;;4.80;99.90;;;;;;5024057;28;20614;-60
2021/11/17 14:53:49;;;;;;;2.40;2.20;;;4.80;99.90;;;;;;5031039;28;20179;-60
2021/11/17 14:56:16;;;;;;;2.30;2.07;;;4.80;99.90;;;;;;5016972;28;20434;-59
2021/11/17 14:58:42;;;;;;;2.23;2.03;;;4.80;99.90;;;;;;5018691;28;20497;-57
2021/11/17 15:01:15;;;;;;;3.83;2.13;;;4.70;99.90;;;;;;5026164;28;20466;-58
2021/11/17 15:03:42;;;;;;;3.27;2.97;;;4.70;99.90;;;;;;5025455;28;20422;-61
2021/11/17 15:06:09;;;;;;;4.90;3.90;;;4.70;99.90;;;;;;5025869;28;20423;-60
2021/11/17 15:08:35;;;;;;;3.60;3.03;;;4.70;99.90;;;;;;5021492;28;20539;-60
2021/11/17 15:11:01;;;;;;;3.60;3.07;;;4.60;99.90;;;;;;5010887;28;20487;-60
2021/11/17 15:13:27;;;;;;;4.27;2.77;;;4.60;99.90;;;;;;5028709;28;20433;-60
2021/11/17 15:15:56;;;;;;;1.90;1.80;;;4.60;99.90;;;;;;5011918;28;20427;-59
2021/11/17 15:18:23;;;;;;;3.00;2.70;;;4.60;99.90;;;;;;5013629;28;20266;-60
2021/11/17 15:20:50;;;;;;;6.63;5.43;;;4.60;99.90;;;;;;5013596;28;20483;-60
2021/11/17 15:23:17;;;;;;;9.10;5.83;;;4.60;99.90;;;;;;5020094;28;20429;-61
2021/11/17 15:25:45;;;;;;;12.03;5.20;;;4.60;99.90;;;;;;5015424;28;20886;-58
2021/11/17 15:28:19;;;;;;;4.80;4.17;;;4.50;99.90;;;;;;5012497;28;20445;-62
2021/11/17 15:30:49;;;;;;;5.07;4.40;;;4.50;99.90;;;;;;5008628;28;20442;-62
2021/11/17 15:33:15;;;;;;;4.10;3.60;;;4.40;99.90;;;;;;5028763;28;21139;-60
2021/11/17 15:35:42;;;;;;;7.70;4.67;;;4.40;99.90;;;;;;5013425;28;20431;-62
2021/11/17 15:38:09;;;;;;;4.30;3.73;;;4.40;99.90;;;;;;5014453;28;21258;-61
2021/11/17 15:40:38;;;;;;;3.47;3.00;;;4.40;99.90;;;;;;5016135;28;20545;-60
2021/11/17 15:43:04;;;;;;;5.50;3.13;;;4.40;99.90;;;;;;5013853;28;20427;-60
2021/11/17 15:45:31;;;;;;;4.10;3.60;;;4.40;99.90;;;;;;5023436;28;20992;-62
2021/11/17 15:47:57;;;;;;;3.57;3.13;;;4.40;99.90;;;;;;5009486;28;20423;-62
2021/11/17 15:50:36;;;;;;;3.83;3.37;;;4.30;99.90;;;;;;5014702;28;20450;-61
2021/11/17 15:53:02;;;;;;;4.03;3.10;;;4.30;99.90;;;;;;5020283;28;20423;-59
2021/11/17 15:55:29;;;;;;;4.20;3.40;;;4.20;99.90;;;;;;5011287;28;20437;-59
2021/11/17 15:57:55;;;;;;;4.23;3.10;;;4.20;99.90;;;;;;5018886;28;20892;-59
2021/11/17 16:00:24;;;;;;;3.83;3.37;;;4.20;99.90;;;;;;5019874;28;21775;-60
2021/11/17 16:02:51;;;;;;;5.00;4.00;;;4.30;99.90;;;;;;5017715;28;20431;-57